createdAt,value
2022-10-18T00:00:24.765Z,18.10
2022-10-18T00:05:48.795Z,19.00
2022-10-18T00:10:51.445Z,18.00
2022-10-18T00:16:00.219Z,18.00
2022-10-18T00:21:08.674Z,17.50
2022-10-18T00:26:32.558Z,14.90
2022-10-18T00:31:37.587Z,18.60
2022-10-18T00:36:41.030Z,17.30
2022-10-18T00:41:44.718Z,18.20
2022-10-18T00:46:49.074Z,17.00
2022-10-18T00:52:32.469Z,19.20
2022-10-18T00:57:36.758Z,20.40
2022-10-18T01:02:42.542Z,18.90
2022-10-18T01:08:13.251Z,17.50
2022-10-18T01:13:44.262Z,18.60
2022-10-18T01:19:11.850Z,18.30
2022-10-18T01:24:32.771Z,18.70
2022-10-18T01:29:57.592Z,19.20
2022-10-18T01:35:05.082Z,19.40
2022-10-18T01:40:10.020Z,18.70
2022-10-18T01:45:14.979Z,21.40
2022-10-18T01:50:30.098Z,27.40
2022-10-18T01:55:48.648Z,27.50
2022-10-18T02:01:16.928Z,28.40
2022-10-18T02:06:39.305Z,24.20
2022-10-18T02:11:45.172Z,26.50
2022-10-18T02:16:54.626Z,30.00
2022-10-18T02:21:58.962Z,31.20
2022-10-18T02:27:02.585Z,27.70
2022-10-18T02:32:05.234Z,26.90
2022-10-18T02:37:10.826Z,22.80
2022-10-18T02:42:15.314Z,26.40
2022-10-18T02:47:18.318Z,24.10
2022-10-18T02:52:21.118Z,27.50
2022-10-18T02:57:23.778Z,31.20
2022-10-18T03:02:27.095Z,29.00
2022-10-18T03:07:30.079Z,22.80
2022-10-18T03:12:33.281Z,21.90
2022-10-18T03:17:36.009Z,20.30
2022-10-18T03:22:38.640Z,22.70
2022-10-18T03:27:41.331Z,21.60
2022-10-18T03:32:43.944Z,22.10
2022-10-18T03:37:46.626Z,21.10
2022-10-18T03:42:49.537Z,22.00
2022-10-18T03:47:52.241Z,20.90
2022-10-18T03:52:55.654Z,20.50
2022-10-18T03:57:58.272Z,20.60
2022-10-18T04:03:00.949Z,21.80
2022-10-18T04:08:04.711Z,21.80
2022-10-18T04:13:07.978Z,21.60
2022-10-18T04:18:10.595Z,21.50
2022-10-18T04:23:13.201Z,22.30
2022-10-18T04:28:15.976Z,22.20
2022-10-18T04:33:19.686Z,22.20
2022-10-18T04:38:22.522Z,21.30
2022-10-18T04:43:25.112Z,21.00
2022-10-18T04:48:28.346Z,23.10
2022-10-18T04:53:31.066Z,23.40
2022-10-18T04:58:33.804Z,22.70
2022-10-18T05:03:36.405Z,23.10
2022-10-18T05:08:39.061Z,22.00
2022-10-18T05:13:41.695Z,23.00
2022-10-18T05:18:44.394Z,21.10
2022-10-18T05:23:47.014Z,22.10
2022-10-18T05:28:50.778Z,22.10
2022-10-18T05:33:53.512Z,24.50
2022-10-18T05:38:58.635Z,21.70
2022-10-18T05:44:07.206Z,23.20
2022-10-18T05:49:13.614Z,21.80
2022-10-18T05:59:20.222Z,21.00
2022-10-18T06:04:23.413Z,21.90
2022-10-18T06:09:27.386Z,17.50
2022-10-18T06:14:35.887Z,22.70
2022-10-18T06:19:55.182Z,22.70
2022-10-18T06:24:57.805Z,24.20
2022-10-18T06:30:00.537Z,23.00
2022-10-18T06:35:03.269Z,22.90
2022-10-18T06:40:07.135Z,21.10
2022-10-18T06:45:10.064Z,23.30
2022-10-18T06:50:15.435Z,20.60
2022-10-18T06:55:18.313Z,21.20
2022-10-18T07:00:20.959Z,19.60
2022-10-18T07:05:23.855Z,22.10
2022-10-18T07:10:26.554Z,22.30
2022-10-18T07:15:29.570Z,22.40
2022-10-18T07:20:32.394Z,22.80
2022-10-18T07:25:35.688Z,24.30
2022-10-18T07:30:38.390Z,22.40
2022-10-18T07:35:41.375Z,22.90
2022-10-18T07:40:44.093Z,21.10
2022-10-18T07:45:53.364Z,21.70
2022-10-18T07:51:00.090Z,23.90
2022-10-18T07:56:08.743Z,19.20
2022-10-18T08:01:16.293Z,21.40
2022-10-18T08:06:20.520Z,20.90
2022-10-18T08:11:25.471Z,18.90
2022-10-18T08:16:29.135Z,21.00
2022-10-18T08:21:31.872Z,21.80
2022-10-18T08:26:34.543Z,20.60
2022-10-18T08:31:37.386Z,19.60
2022-10-18T08:36:40.137Z,19.70
2022-10-18T08:42:07.508Z,16.70
2022-10-18T08:47:28.877Z,19.10
2022-10-18T08:52:45.891Z,17.40
2022-10-18T08:57:49.199Z,17.70
2022-10-18T09:03:13.360Z,16.40
2022-10-18T09:08:30.957Z,16.50
2022-10-18T09:13:37.635Z,13.30
2022-10-18T09:18:57.471Z,13.30
2022-10-18T09:24:14.051Z,13.00
2022-10-18T09:29:40.064Z,13.20
2022-10-18T09:39:53.697Z,12.00
2022-10-18T09:45:03.943Z,9.70
2022-10-18T09:50:30.696Z,8.30
2022-10-18T09:55:39.850Z,10.00
2022-10-18T10:00:48.572Z,9.30
2022-10-18T10:06:17.020Z,9.10
2022-10-18T10:11:36.456Z,10.30
2022-10-18T10:16:52.328Z,9.00
2022-10-18T10:21:59.067Z,8.90
2022-10-18T10:27:05.844Z,9.30
2022-10-18T10:32:13.594Z,8.60
2022-10-18T10:37:34.999Z,8.10
2022-10-18T10:42:48.912Z,7.30
2022-10-18T10:47:53.765Z,7.60
2022-10-18T10:52:56.698Z,8.80
2022-10-18T10:58:00.477Z,8.60
2022-10-18T11:03:28.427Z,8.60
2022-10-18T11:08:38.252Z,8.60
2022-10-18T11:14:13.236Z,8.30
2022-10-18T11:19:40.729Z,7.80
2022-10-18T11:24:43.817Z,8.30
2022-10-18T11:29:51.360Z,7.90
2022-10-18T11:35:25.725Z,8.40
2022-10-18T11:41:24.979Z,6.80
2022-10-18T11:47:09.367Z,8.30
2022-10-18T11:52:41.812Z,8.40
2022-10-18T11:58:18.847Z,8.80
2022-10-18T12:03:29.185Z,8.90
2022-10-18T12:08:40.166Z,9.10
2022-10-18T12:13:51.498Z,8.20
2022-10-18T12:18:58.416Z,9.30
2022-10-18T12:24:22.188Z,10.20
2022-10-18T12:29:32.981Z,9.90
2022-10-18T12:34:43.749Z,8.50
2022-10-18T12:45:33.244Z,10.50
2022-10-18T12:50:39.707Z,11.10
2022-10-18T12:55:45.476Z,10.90
2022-10-18T13:00:49.077Z,12.40
2022-10-18T13:06:01.601Z,11.00
2022-10-18T13:11:08.486Z,11.30
2022-10-18T13:16:20.406Z,11.90
2022-10-18T13:21:25.643Z,12.00
2022-10-18T13:27:34.960Z,11.50
2022-10-18T13:32:44.573Z,11.10
2022-10-18T13:37:59.668Z,11.00
2022-10-18T13:43:39.819Z,10.40
2022-10-18T13:49:05.685Z,11.70
2022-10-18T13:54:14.480Z,9.40
2022-10-18T13:59:30.244Z,9.50
2022-10-18T14:04:45.671Z,9.80
2022-10-18T14:09:56.078Z,8.10
2022-10-18T14:15:18.117Z,8.80
2022-10-18T14:20:28.557Z,8.60
2022-10-18T14:25:37.865Z,9.00
2022-10-18T14:30:55.720Z,8.70
2022-10-18T14:36:03.752Z,7.80
2022-10-18T14:41:15.089Z,8.90
2022-10-18T14:46:27.336Z,9.10
2022-10-18T14:51:36.488Z,8.40
2022-10-18T14:56:41.515Z,8.40
2022-10-18T15:01:53.957Z,8.80
2022-10-18T15:06:57.664Z,8.70
2022-10-18T15:12:03.162Z,12.70
2022-10-18T15:17:20.423Z,12.80
2022-10-18T15:22:32.910Z,9.60
2022-10-18T15:27:38.387Z,11.80
2022-10-18T15:32:51.853Z,21.00
2022-10-18T15:37:57.350Z,17.20
2022-10-18T15:43:03.702Z,22.90
2022-10-18T15:48:06.358Z,11.10
2022-10-18T15:53:21.330Z,10.40
2022-10-18T15:58:24.051Z,10.50
2022-10-18T16:03:27.480Z,11.30
2022-10-18T16:08:30.796Z,10.50
2022-10-18T16:13:33.673Z,10.20
2022-10-18T16:18:36.373Z,13.20
2022-10-18T16:23:38.983Z,34.30
2022-10-18T16:28:42.113Z,22.50
2022-10-18T16:33:45.992Z,21.90
2022-10-18T16:38:49.363Z,23.40
2022-10-18T16:43:52.083Z,30.10
2022-10-18T16:48:55.410Z,12.20
2022-10-18T16:53:58.418Z,11.70
2022-10-18T16:59:01.372Z,11.30
2022-10-18T17:04:04.152Z,13.40
2022-10-18T17:09:06.841Z,12.60
2022-10-18T17:14:09.539Z,11.30
2022-10-18T17:19:12.236Z,18.40
2022-10-18T17:24:14.935Z,13.90
2022-10-18T17:29:17.736Z,18.70
2022-10-18T17:34:21.532Z,13.00
2022-10-18T17:39:24.965Z,11.10
2022-10-18T17:44:27.559Z,9.70
2022-10-18T17:49:30.251Z,10.70
2022-10-18T17:54:32.897Z,10.40
2022-10-18T17:59:35.669Z,9.10
2022-10-18T18:04:38.444Z,8.90
2022-10-18T18:09:41.095Z,9.20
2022-10-18T18:14:43.866Z,8.70
2022-10-18T18:24:54.104Z,7.40
2022-10-18T18:29:56.888Z,8.80
2022-10-18T18:34:59.577Z,8.30
2022-10-18T18:40:02.180Z,9.20
2022-10-18T18:45:05.760Z,9.80
2022-10-18T18:50:08.799Z,10.00
2022-10-18T18:55:11.495Z,9.80
2022-10-18T19:00:15.116Z,8.70
2022-10-18T19:05:17.883Z,7.60
2022-10-18T19:10:20.595Z,7.20
2022-10-18T19:15:23.621Z,8.00
2022-10-18T19:20:26.321Z,6.80
2022-10-18T19:25:29.126Z,6.50
2022-10-18T19:30:31.720Z,5.40
2022-10-18T19:35:34.335Z,5.80
2022-10-18T19:40:37.015Z,5.80
2022-10-18T19:45:39.715Z,5.10
2022-10-18T19:50:42.413Z,4.30
2022-10-18T19:55:45.108Z,4.00
2022-10-18T20:00:52.731Z,4.10
2022-10-18T20:05:56.895Z,4.60
2022-10-18T20:11:04.787Z,4.80
2022-10-18T20:16:09.268Z,4.40
2022-10-18T20:21:14.359Z,3.80
2022-10-18T20:26:20.804Z,3.70
2022-10-18T20:36:31.740Z,4.00
2022-10-18T20:41:38.117Z,4.50
2022-10-18T20:51:44.788Z,4.10
2022-10-18T20:56:47.415Z,4.60
2022-10-18T21:01:50.159Z,4.20
2022-10-18T21:06:53.070Z,4.70
2022-10-18T21:11:56.308Z,4.50
2022-10-18T21:16:59.313Z,4.90
2022-10-18T21:22:02.007Z,4.20
2022-10-18T21:27:04.709Z,4.70
2022-10-18T21:32:07.406Z,4.90
2022-10-18T21:37:10.101Z,4.60
2022-10-18T21:42:13.835Z,6.00
2022-10-18T21:47:16.499Z,5.20
2022-10-18T21:52:19.122Z,5.20
2022-10-18T21:57:21.823Z,5.00
2022-10-18T22:02:24.519Z,4.50
2022-10-18T22:07:27.218Z,4.80
2022-10-18T22:12:30.041Z,2.90
2022-10-18T22:17:32.960Z,4.90
2022-10-18T22:22:35.929Z,4.40
2022-10-18T22:27:38.630Z,4.50
2022-10-18T22:32:41.308Z,4.50
2022-10-18T22:37:44.024Z,4.70
2022-10-18T22:42:46.727Z,4.40
2022-10-18T22:47:49.338Z,3.30
2022-10-18T22:52:54.018Z,4.50
2022-10-18T22:57:57.362Z,4.70
2022-10-18T23:02:59.950Z,4.60
2022-10-18T23:08:02.543Z,4.30
2022-10-18T23:13:06.311Z,4.20
2022-10-18T23:18:08.924Z,4.70
2022-10-18T23:23:12.785Z,5.00
2022-10-18T23:28:15.379Z,4.60
2022-10-18T23:33:17.992Z,4.20
2022-10-18T23:38:20.611Z,4.30
2022-10-18T23:43:23.513Z,3.70
2022-10-18T23:48:27.263Z,3.80
2022-10-18T23:53:30.264Z,4.30
2022-10-18T23:58:34.649Z,4.90
